createdAt,value
2022-08-21T00:00:25.656Z,5.01
2022-08-21T00:01:29.073Z,5.43
2022-08-21T00:02:31.779Z,5.96
2022-08-21T00:03:34.253Z,4.85
2022-08-21T00:04:36.410Z,6.03
2022-08-21T00:05:44.053Z,4.93
2022-08-21T00:06:46.506Z,5.14
2022-08-21T00:07:49.086Z,6.11
2022-08-21T00:08:52.396Z,5.42
2022-08-21T00:09:55.035Z,4.70
2022-08-21T00:10:57.425Z,4.83
2022-08-21T00:11:59.876Z,5.69
2022-08-21T00:13:04.910Z,5.99
2022-08-21T00:14:09.117Z,4.79
2022-08-21T00:15:13.904Z,4.59
2022-08-21T00:16:16.867Z,4.93
2022-08-21T00:17:19.596Z,5.48
2022-08-21T00:18:21.762Z,5.29
2022-08-21T00:19:23.970Z,4.96
2022-08-21T00:20:27.607Z,4.86
2022-08-21T00:21:29.833Z,4.62
2022-08-21T00:22:32.185Z,4.33
2022-08-21T00:23:35.562Z,5.35
2022-08-21T00:24:38.140Z,5.65
2022-08-21T00:25:42.392Z,4.39
2022-08-21T00:26:46.340Z,5.35
2022-08-21T00:27:49.211Z,5.72
2022-08-21T00:28:51.510Z,4.58
2022-08-21T00:29:53.734Z,4.43
2022-08-21T00:30:56.647Z,4.85
2022-08-21T00:31:58.855Z,4.93
2022-08-21T00:33:01.488Z,5.35
2022-08-21T00:34:04.102Z,5.15
2022-08-21T00:35:12.826Z,5.45
2022-08-21T00:36:16.305Z,4.73
2022-08-21T00:37:19.078Z,5.52
2022-08-21T00:38:21.427Z,5.44
2022-08-21T00:39:23.695Z,5.43
2022-08-21T00:41:43.244Z,5.52
2022-08-21T00:42:53.333Z,5.49
2022-08-21T00:43:51.521Z,5.28
2022-08-21T00:44:53.653Z,5.09
2022-08-21T00:45:57.111Z,5.99
2022-08-21T00:46:59.639Z,5.62
2022-08-21T00:48:01.875Z,5.43
2022-08-21T00:49:05.785Z,5.93
2022-08-21T00:50:10.630Z,5.33
2022-08-21T00:51:21.677Z,4.81
2022-08-21T00:52:27.422Z,6.26
2022-08-21T00:53:30.456Z,5.28
2022-08-21T00:54:33.741Z,5.34
2022-08-21T00:55:37.021Z,4.91
2022-08-21T00:56:40.037Z,5.66
2022-08-21T00:57:51.447Z,4.55
2022-08-21T00:58:56.016Z,5.37
2022-08-21T01:00:01.503Z,6.36
2022-08-21T01:01:08.825Z,5.47
2022-08-21T01:02:11.599Z,4.75
2022-08-21T01:03:17.746Z,4.84
2022-08-21T01:04:21.079Z,4.98
2022-08-21T01:05:23.842Z,5.61
2022-08-21T01:06:26.512Z,6.12
2022-08-21T01:07:28.787Z,5.97
2022-08-21T01:08:32.407Z,5.11
2022-08-21T01:09:35.686Z,5.34
2022-08-21T01:10:39.090Z,5.11
2022-08-21T01:11:42.282Z,5.24
2022-08-21T01:12:44.896Z,5.36
2022-08-21T01:13:48.133Z,5.92
2022-08-21T01:14:50.613Z,5.38
2022-08-21T01:15:56.522Z,5.60
2022-08-21T01:17:01.267Z,5.08
2022-08-21T01:18:07.086Z,5.71
2022-08-21T01:19:09.753Z,4.76
2022-08-21T01:20:14.774Z,5.24
2022-08-21T01:21:20.569Z,5.17
2022-08-21T01:22:23.158Z,5.86
2022-08-21T01:23:25.566Z,5.11
2022-08-21T01:24:28.068Z,4.95
2022-08-21T01:25:31.018Z,5.84
2022-08-21T01:26:35.875Z,5.21
2022-08-21T01:27:38.197Z,5.24
2022-08-21T01:30:15.402Z,5.25
2022-08-21T01:31:24.833Z,4.84
2022-08-21T01:32:24.837Z,4.99
2022-08-21T01:33:27.095Z,5.37
2022-08-21T01:34:29.368Z,5.27
2022-08-21T01:35:31.562Z,5.52
2022-08-21T01:36:35.260Z,5.55
2022-08-21T01:37:37.778Z,5.61
2022-08-21T01:38:40.087Z,6.06
2022-08-21T01:39:43.151Z,5.29
2022-08-21T01:40:47.203Z,4.98
2022-08-21T01:41:50.547Z,5.19
2022-08-21T01:42:53.295Z,5.33
2022-08-21T01:43:55.703Z,5.42
2022-08-21T01:44:58.344Z,6.07
2022-08-21T01:46:02.467Z,5.31
2022-08-21T01:47:07.332Z,5.28
2022-08-21T01:48:09.805Z,5.73
2022-08-21T01:49:12.104Z,6.33
2022-08-21T01:50:18.434Z,5.24
2022-08-21T01:51:20.882Z,5.60
2022-08-21T01:52:23.183Z,5.09
2022-08-21T01:53:27.751Z,4.91
2022-08-21T01:54:30.775Z,5.64
2022-08-21T01:55:33.595Z,4.76
2022-08-21T01:56:42.544Z,5.06
2022-08-21T01:57:46.427Z,5.32
2022-08-21T01:58:49.355Z,4.90
2022-08-21T01:59:51.753Z,5.56
2022-08-21T02:00:54.508Z,5.66
2022-08-21T02:01:57.249Z,5.24
2022-08-21T02:03:00.129Z,5.69
2022-08-21T02:04:03.564Z,5.73
2022-08-21T02:05:06.441Z,4.50
2022-08-21T02:06:15.490Z,4.85
2022-08-21T02:07:17.761Z,5.09
2022-08-21T02:08:20.152Z,4.55
2022-08-21T02:09:23.151Z,4.87
2022-08-21T02:10:29.807Z,5.88
2022-08-21T02:11:33.120Z,5.63
2022-08-21T02:12:35.576Z,5.12
2022-08-21T02:13:37.978Z,4.47
2022-08-21T02:14:40.269Z,4.54
2022-08-21T02:15:42.632Z,4.66
2022-08-21T02:16:46.454Z,5.25
2022-08-21T02:17:54.007Z,4.78
2022-08-21T02:18:56.400Z,5.34
2022-08-21T02:19:58.627Z,4.97
2022-08-21T02:21:03.068Z,5.57
2022-08-21T02:22:05.713Z,5.50
2022-08-21T02:23:10.782Z,5.39
2022-08-21T02:24:13.170Z,4.15
2022-08-21T02:25:15.963Z,5.16
2022-08-21T02:26:19.129Z,5.03
2022-08-21T02:27:26.864Z,5.87
2022-08-21T02:28:27.938Z,6.48
2022-08-21T02:29:30.303Z,5.21
2022-08-21T02:30:36.197Z,4.82
2022-08-21T02:31:38.604Z,5.44
2022-08-21T02:32:40.923Z,5.28
2022-08-21T02:33:43.966Z,5.29
2022-08-21T02:34:46.241Z,5.39
2022-08-21T02:35:49.770Z,4.94
2022-08-21T02:36:59.345Z,5.81
2022-08-21T02:38:00.090Z,5.19
2022-08-21T02:39:02.719Z,5.91
2022-08-21T02:40:07.009Z,5.11
2022-08-21T02:41:13.329Z,5.69
2022-08-21T02:42:16.468Z,4.82
2022-08-21T02:43:21.159Z,4.43
2022-08-21T02:44:30.150Z,5.18
2022-08-21T02:45:28.256Z,4.54
2022-08-21T02:46:32.198Z,5.12
2022-08-21T02:47:34.512Z,5.03
2022-08-21T02:48:37.315Z,4.84
2022-08-21T02:49:39.759Z,5.13
2022-08-21T02:50:45.764Z,4.89
2022-08-21T02:51:48.043Z,5.56
2022-08-21T02:52:51.948Z,5.50
2022-08-21T02:53:54.661Z,4.76
2022-08-21T02:54:56.955Z,5.09
2022-08-21T02:56:01.510Z,5.14
2022-08-21T02:57:03.845Z,5.58
2022-08-21T02:58:07.748Z,5.47
2022-08-21T02:59:10.010Z,5.26
2022-08-21T03:00:14.675Z,4.70
2022-08-21T03:01:16.907Z,5.21
2022-08-21T03:02:19.574Z,5.53
2022-08-21T03:03:21.938Z,5.56
2022-08-21T03:04:24.135Z,5.05
2022-08-21T03:05:28.827Z,4.90
2022-08-21T03:06:32.860Z,4.70
2022-08-21T03:07:35.117Z,4.97
2022-08-21T03:08:37.478Z,4.92
2022-08-21T03:09:45.593Z,5.24
2022-08-21T03:10:47.574Z,5.38
2022-08-21T03:11:50.304Z,4.91
2022-08-21T03:12:52.619Z,4.89
2022-08-21T03:13:54.807Z,4.74
2022-08-21T03:14:57.145Z,5.77
2022-08-21T03:16:00.122Z,5.44
2022-08-21T03:17:03.187Z,5.11
2022-08-21T03:18:06.274Z,5.63
2022-08-21T03:19:09.034Z,5.67
2022-08-21T03:20:14.647Z,5.32
2022-08-21T03:21:17.162Z,5.57
2022-08-21T03:22:20.091Z,4.94
2022-08-21T03:23:23.605Z,5.39
2022-08-21T03:24:25.973Z,5.63
2022-08-21T03:25:39.892Z,5.06
2022-08-21T03:26:35.302Z,5.42
2022-08-21T03:27:37.878Z,5.13
2022-08-21T03:28:42.588Z,6.08
2022-08-21T03:29:44.943Z,5.24
2022-08-21T03:30:49.773Z,4.96
2022-08-21T03:31:51.982Z,5.97
2022-08-21T03:32:54.367Z,5.92
2022-08-21T03:33:58.909Z,5.68
2022-08-21T03:35:01.328Z,5.75
2022-08-21T03:36:07.251Z,5.26
2022-08-21T03:37:09.633Z,5.57
2022-08-21T03:38:12.187Z,6.25
2022-08-21T03:39:14.509Z,5.27
2022-08-21T03:40:19.362Z,5.85
2022-08-21T03:41:21.940Z,6.14
2022-08-21T03:42:24.978Z,5.15
2022-08-21T03:43:27.951Z,6.76
2022-08-21T03:44:32.561Z,5.38
2022-08-21T03:45:35.286Z,5.43
2022-08-21T03:46:38.432Z,5.59
2022-08-21T03:49:05.949Z,5.33
2022-08-21T03:50:09.319Z,5.36
2022-08-21T03:51:11.807Z,4.68
2022-08-21T03:52:14.622Z,5.37
2022-08-21T03:53:18.038Z,5.33
2022-08-21T03:54:21.405Z,5.64
2022-08-21T03:55:24.581Z,5.84
2022-08-21T03:56:27.723Z,5.55
2022-08-21T03:57:30.053Z,5.33
2022-08-21T03:59:23.827Z,4.82
2022-08-21T04:00:28.986Z,5.41
2022-08-21T04:01:31.404Z,5.11
2022-08-21T04:02:33.962Z,5.01
2022-08-21T04:03:37.905Z,4.47
2022-08-21T04:04:40.079Z,5.89
2022-08-21T04:05:42.455Z,5.73
2022-08-21T04:06:45.010Z,5.75
2022-08-21T04:07:47.367Z,5.09
2022-08-21T04:08:49.772Z,5.00
2022-08-21T04:09:52.047Z,5.77
2022-08-21T04:10:56.851Z,5.89
2022-08-21T04:12:00.543Z,5.32
2022-08-21T04:13:04.373Z,4.89
2022-08-21T04:14:06.745Z,5.06
2022-08-21T04:15:12.021Z,5.16
2022-08-21T04:16:15.172Z,5.69
2022-08-21T04:17:18.213Z,6.06
2022-08-21T04:18:20.986Z,6.31
2022-08-21T04:19:23.243Z,5.79
2022-08-21T04:20:26.629Z,5.66
2022-08-21T04:21:30.910Z,6.07
2022-08-21T04:22:33.202Z,5.91
2022-08-21T04:23:35.690Z,5.18
2022-08-21T04:24:37.941Z,5.83
2022-08-21T04:25:40.301Z,5.66
2022-08-21T04:26:43.581Z,5.36
2022-08-21T04:27:46.361Z,5.27
2022-08-21T04:28:48.836Z,5.37
2022-08-21T04:29:51.154Z,5.69
2022-08-21T04:30:54.303Z,4.90
2022-08-21T04:31:56.980Z,6.12
2022-08-21T04:32:59.810Z,6.23
2022-08-21T04:34:02.922Z,5.63
2022-08-21T04:35:08.609Z,4.97
2022-08-21T04:36:13.061Z,6.34
2022-08-21T04:37:15.409Z,5.54
2022-08-21T04:38:18.170Z,6.06
2022-08-21T04:39:20.486Z,5.60
2022-08-21T04:40:26.849Z,5.16
2022-08-21T04:41:30.062Z,6.26
2022-08-21T04:42:32.407Z,5.15
2022-08-21T04:43:35.097Z,5.21
2022-08-21T04:44:37.410Z,5.27
2022-08-21T04:45:43.075Z,4.97
2022-08-21T04:46:45.690Z,5.57
2022-08-21T04:47:52.693Z,5.00
2022-08-21T04:48:54.518Z,5.43
2022-08-21T04:49:57.152Z,5.15
2022-08-21T04:52:23.565Z,5.65
2022-08-21T04:53:38.595Z,4.84
2022-08-21T04:54:42.882Z,4.48
2022-08-21T04:55:45.488Z,4.65
2022-08-21T04:56:55.869Z,5.38
2022-08-21T04:57:59.335Z,4.39
2022-08-21T04:59:05.650Z,5.54
2022-08-21T05:00:13.633Z,5.26
2022-08-21T05:01:17.116Z,5.36
2022-08-21T05:02:19.563Z,5.17
2022-08-21T05:03:22.882Z,4.92
2022-08-21T05:04:28.826Z,5.18
2022-08-21T05:05:31.181Z,5.62
2022-08-21T05:06:36.952Z,4.46
2022-08-21T05:07:42.288Z,5.55
2022-08-21T05:08:47.428Z,4.84
2022-08-21T05:09:50.363Z,4.67
2022-08-21T05:10:57.014Z,5.01
2022-08-21T05:11:57.402Z,4.95
2022-08-21T05:13:00.555Z,4.88
2022-08-21T05:14:03.930Z,4.74
2022-08-21T05:15:07.245Z,4.87
2022-08-21T05:16:12.409Z,5.06
2022-08-21T05:17:15.168Z,4.56
2022-08-21T05:18:17.735Z,4.40
2022-08-21T05:19:20.405Z,5.03
2022-08-21T05:20:24.392Z,4.78
2022-08-21T05:21:26.667Z,4.22
2022-08-21T05:22:28.974Z,4.77
2022-08-21T05:23:31.383Z,4.36
2022-08-21T05:24:33.886Z,4.89
2022-08-21T05:25:36.474Z,4.19
2022-08-21T05:26:46.388Z,4.29
2022-08-21T05:27:44.021Z,4.75
2022-08-21T05:28:46.703Z,4.73
2022-08-21T05:29:50.167Z,4.74
2022-08-21T05:30:53.167Z,4.91
2022-08-21T05:31:57.527Z,4.92
2022-08-21T05:33:02.224Z,4.63
2022-08-21T05:34:04.764Z,4.63
2022-08-21T05:35:08.403Z,4.14
2022-08-21T05:36:11.027Z,4.89
2022-08-21T05:37:13.693Z,4.21
2022-08-21T05:38:17.788Z,4.29
2022-08-21T05:39:20.246Z,4.93
2022-08-21T05:40:24.238Z,4.49
2022-08-21T05:41:26.500Z,3.82
2022-08-21T05:42:28.909Z,4.52
2022-08-21T05:43:31.393Z,4.09
2022-08-21T05:44:33.915Z,4.71
2022-08-21T05:45:42.969Z,4.48
2022-08-21T05:46:42.208Z,4.24
2022-08-21T05:47:44.589Z,5.86
2022-08-21T05:48:47.054Z,5.01
2022-08-21T05:49:49.360Z,4.56
2022-08-21T05:50:52.847Z,4.36
2022-08-21T05:51:55.305Z,4.83
2022-08-21T05:52:58.412Z,4.01
2022-08-21T05:54:02.382Z,4.26
2022-08-21T05:55:05.446Z,3.81
2022-08-21T05:56:08.109Z,4.62
2022-08-21T05:57:10.283Z,4.59
2022-08-21T05:58:15.176Z,4.75
2022-08-21T05:59:17.995Z,3.71
2022-08-21T06:00:20.769Z,4.06
2022-08-21T06:01:23.528Z,4.37
2022-08-21T06:02:26.547Z,5.01
2022-08-21T06:04:42.473Z,4.22
2022-08-21T06:05:45.580Z,4.51
2022-08-21T06:06:48.156Z,4.34
2022-08-21T06:07:51.205Z,3.88
2022-08-21T06:08:53.571Z,4.44
2022-08-21T06:09:55.852Z,4.01
2022-08-21T06:11:01.154Z,4.61
2022-08-21T06:12:09.514Z,4.33
2022-08-21T06:13:12.696Z,4.53
2022-08-21T06:14:15.859Z,5.79
2022-08-21T06:15:18.538Z,4.20
2022-08-21T06:16:22.008Z,3.88
2022-08-21T06:17:24.485Z,4.29
2022-08-21T06:18:27.233Z,4.16
2022-08-21T06:19:29.749Z,3.92
2022-08-21T06:20:34.007Z,4.60
2022-08-21T06:21:36.422Z,4.55
2022-08-21T06:22:39.001Z,3.95
2022-08-21T06:23:42.597Z,4.11
2022-08-21T06:24:45.367Z,4.38
2022-08-21T06:25:47.683Z,4.15
2022-08-21T06:26:51.291Z,4.05
2022-08-21T06:28:09.799Z,4.87
2022-08-21T06:29:13.538Z,3.84
2022-08-21T06:30:16.110Z,4.22
2022-08-21T06:31:21.450Z,3.79
2022-08-21T06:32:23.864Z,3.99
2022-08-21T06:33:30.503Z,4.33
2022-08-21T06:34:30.558Z,3.85
2022-08-21T06:35:33.719Z,3.88
2022-08-21T06:36:37.049Z,4.24
2022-08-21T06:37:39.576Z,3.61
2022-08-21T06:38:42.183Z,4.47
2022-08-21T06:39:46.430Z,3.53
2022-08-21T06:40:50.606Z,4.28
2022-08-21T06:41:56.537Z,3.71
2022-08-21T06:43:06.477Z,3.99
2022-08-21T06:44:09.480Z,3.57
2022-08-21T06:45:11.860Z,4.07
2022-08-21T06:46:14.520Z,4.21
2022-08-21T06:47:16.842Z,4.68
2022-08-21T06:48:19.673Z,3.67
2022-08-21T06:49:21.963Z,4.33
2022-08-21T06:50:24.494Z,5.06
2022-08-21T06:51:27.719Z,4.21
2022-08-21T06:52:30.022Z,4.06
2022-08-21T06:53:32.371Z,3.77
2022-08-21T06:54:34.781Z,3.63
2022-08-21T06:55:38.230Z,4.15
2022-08-21T06:56:41.111Z,3.94
2022-08-21T06:57:47.980Z,4.16
2022-08-21T06:58:52.143Z,4.54
2022-08-21T06:59:54.226Z,4.37
2022-08-21T07:01:00.725Z,3.79
2022-08-21T07:02:01.065Z,4.54
2022-08-21T07:03:03.493Z,3.87
2022-08-21T07:04:05.781Z,3.69
2022-08-21T07:05:18.404Z,3.71
2022-08-21T07:06:13.414Z,3.83
2022-08-21T07:07:15.926Z,3.88
2022-08-21T07:08:18.119Z,4.88
2022-08-21T07:09:24.485Z,4.79
2022-08-21T07:10:26.996Z,3.99
2022-08-21T07:11:29.373Z,3.84
2022-08-21T07:12:31.615Z,3.44
2022-08-21T07:13:34.099Z,3.71
2022-08-21T07:14:36.998Z,4.35
2022-08-21T07:15:39.395Z,4.53
2022-08-21T07:16:44.688Z,3.86
2022-08-21T07:17:56.924Z,4.62
2022-08-21T07:18:59.317Z,4.57
2022-08-21T07:20:02.322Z,4.23
2022-08-21T07:21:07.321Z,4.60
2022-08-21T07:22:10.072Z,3.74
2022-08-21T07:23:19.569Z,5.59
2022-08-21T07:24:21.923Z,4.49
2022-08-21T07:25:27.509Z,3.83
2022-08-21T07:26:33.795Z,3.38
2022-08-21T07:27:36.732Z,4.21
2022-08-21T07:28:40.933Z,4.91
2022-08-21T07:29:43.485Z,4.09
2022-08-21T07:30:48.325Z,4.42
2022-08-21T07:31:50.767Z,3.85
2022-08-21T07:32:55.471Z,3.85
2022-08-21T07:34:00.031Z,3.83
2022-08-21T07:35:02.794Z,3.65
2022-08-21T07:36:06.709Z,3.17
2022-08-21T07:37:10.302Z,5.29
2022-08-21T07:38:13.051Z,4.08
2022-08-21T07:39:15.308Z,3.69
2022-08-21T07:40:19.680Z,3.18
2022-08-21T07:41:26.243Z,3.92
2022-08-21T07:42:30.964Z,4.23
2022-08-21T07:43:36.935Z,3.85
2022-08-21T07:44:39.811Z,3.36
2022-08-21T07:45:42.686Z,3.64
2022-08-21T07:46:45.355Z,3.35
2022-08-21T07:47:52.017Z,4.44
2022-08-21T07:48:56.027Z,3.53
2022-08-21T07:49:58.453Z,4.00
2022-08-21T07:51:05.053Z,3.37
2022-08-21T07:52:07.450Z,3.03
2022-08-21T07:53:09.732Z,3.62
2022-08-21T07:54:14.534Z,3.49
2022-08-21T07:55:20.148Z,3.56
2022-08-21T07:56:22.807Z,3.94
2022-08-21T07:57:25.160Z,3.57
2022-08-21T07:58:27.334Z,3.44
2022-08-21T07:59:29.771Z,4.28
2022-08-21T08:00:34.103Z,3.51
2022-08-21T08:01:38.625Z,5.21
2022-08-21T08:02:45.098Z,3.58
2022-08-21T08:03:47.490Z,3.60
2022-08-21T08:04:51.274Z,3.43
2022-08-21T08:05:53.751Z,4.23
2022-08-21T08:06:56.860Z,3.60
2022-08-21T08:07:59.843Z,3.15
2022-08-21T08:10:17.944Z,3.48
2022-08-21T08:11:20.340Z,3.27
2022-08-21T08:12:22.613Z,3.61
2022-08-21T08:13:26.209Z,4.14
2022-08-21T08:14:31.425Z,3.06
2022-08-21T08:15:37.378Z,3.92
2022-08-21T08:16:37.685Z,3.26
2022-08-21T08:17:40.047Z,3.81
2022-08-21T08:18:42.630Z,3.49
2022-08-21T08:19:45.145Z,4.29
2022-08-21T08:20:49.585Z,3.65
2022-08-21T08:21:54.814Z,2.92
2022-08-21T08:22:57.740Z,3.55
2022-08-21T08:24:00.776Z,3.25
2022-08-21T08:25:09.408Z,3.17
2022-08-21T08:26:11.853Z,4.63
2022-08-21T08:27:15.031Z,3.41
2022-08-21T08:28:17.927Z,4.08
2022-08-21T08:29:21.763Z,3.39
2022-08-21T08:30:24.899Z,3.59
2022-08-21T08:31:27.166Z,4.11
2022-08-21T08:32:29.499Z,3.64
2022-08-21T08:33:32.273Z,4.51
2022-08-21T08:34:35.743Z,3.72
2022-08-21T08:35:39.148Z,3.98
2022-08-21T08:36:42.436Z,3.78
2022-08-21T08:37:46.666Z,4.18
2022-08-21T08:38:49.706Z,3.19
2022-08-21T08:39:52.839Z,2.99
2022-08-21T08:41:00.380Z,3.94
2022-08-21T08:42:33.733Z,3.59
2022-08-21T08:43:20.281Z,3.21
2022-08-21T08:44:22.684Z,3.75
2022-08-21T08:45:26.623Z,2.71
2022-08-21T08:48:03.291Z,3.54
2022-08-21T08:49:33.222Z,3.12
2022-08-21T08:50:51.536Z,3.43
2022-08-21T08:52:00.220Z,5.13
2022-08-21T08:53:08.951Z,3.07
2022-08-21T08:55:42.971Z,3.97
2022-08-21T08:56:46.557Z,3.17
2022-08-21T08:57:51.497Z,3.77
2022-08-21T08:58:56.423Z,4.39
2022-08-21T09:00:02.531Z,3.75
2022-08-21T09:01:08.764Z,3.60
2022-08-21T09:02:13.026Z,3.86
2022-08-21T09:03:16.468Z,4.15
2022-08-21T09:04:23.300Z,3.44
2022-08-21T09:05:29.121Z,4.05
2022-08-21T09:06:57.542Z,4.36
2022-08-21T09:08:35.555Z,3.53
2022-08-21T09:09:41.496Z,3.32
2022-08-21T09:11:17.871Z,3.48
2022-08-21T09:12:36.103Z,3.17
2022-08-21T09:13:48.200Z,3.47
2022-08-21T09:15:21.709Z,4.44
2022-08-21T09:16:28.062Z,3.61
2022-08-21T09:17:51.334Z,3.16
2022-08-21T09:19:06.400Z,4.01
2022-08-21T09:20:27.895Z,4.14
2022-08-21T09:22:52.576Z,3.84
2022-08-21T09:25:24.550Z,3.24
2022-08-21T09:26:34.649Z,3.59
2022-08-21T09:27:38.022Z,3.03
2022-08-21T09:28:41.115Z,3.86
2022-08-21T09:29:46.961Z,2.89
2022-08-21T09:30:52.718Z,4.52
2022-08-21T09:31:55.382Z,3.43
2022-08-21T09:32:58.322Z,2.82
2022-08-21T09:34:03.743Z,2.88
2022-08-21T09:35:13.148Z,2.95
2022-08-21T09:36:32.591Z,2.64
2022-08-21T09:37:47.459Z,3.43
2022-08-21T09:38:54.722Z,3.01
2022-08-21T09:39:58.389Z,3.50
2022-08-21T09:41:10.242Z,3.56
2022-08-21T09:42:16.153Z,3.26
2022-08-21T09:43:21.318Z,3.53
2022-08-21T09:44:29.794Z,3.17
2022-08-21T09:45:33.826Z,4.14
2022-08-21T09:46:36.837Z,3.11
2022-08-21T09:47:39.245Z,3.93
2022-08-21T09:48:47.449Z,4.13
2022-08-21T09:49:50.514Z,3.51
2022-08-21T09:50:54.329Z,3.35
2022-08-21T09:51:58.510Z,4.08
2022-08-21T09:53:03.232Z,3.56
2022-08-21T09:54:09.261Z,3.81
2022-08-21T09:55:17.605Z,2.92
2022-08-21T09:56:31.479Z,3.01
2022-08-21T09:57:34.184Z,2.84
2022-08-21T09:58:39.386Z,2.80
2022-08-21T09:59:44.442Z,3.42
2022-08-21T10:00:50.791Z,3.49
2022-08-21T10:01:54.286Z,2.84
2022-08-21T10:03:15.432Z,3.59
2022-08-21T10:04:24.516Z,3.56
2022-08-21T10:05:27.302Z,3.26
2022-08-21T10:06:30.131Z,3.42
2022-08-21T10:07:36.816Z,2.64
2022-08-21T10:08:40.904Z,3.39
2022-08-21T10:09:43.246Z,5.35
2022-08-21T10:10:46.023Z,4.18
2022-08-21T10:11:51.915Z,2.98
2022-08-21T10:13:03.575Z,4.44
2022-08-21T10:14:21.786Z,3.08
2022-08-21T10:15:42.791Z,3.34
2022-08-21T10:16:57.276Z,3.08
2022-08-21T10:18:18.067Z,3.18
2022-08-21T10:19:29.239Z,3.09
2022-08-21T10:20:47.760Z,2.72
2022-08-21T10:22:08.311Z,2.74
2022-08-21T10:23:29.516Z,2.97
2022-08-21T10:24:35.396Z,2.86
2022-08-21T10:26:13.225Z,2.86
2022-08-21T10:27:35.380Z,2.59
2022-08-21T10:28:53.826Z,2.92
2022-08-21T10:29:59.779Z,3.14
2022-08-21T10:31:09.128Z,3.17
2022-08-21T10:32:26.350Z,2.64
2022-08-21T10:33:51.700Z,3.21
2022-08-21T10:35:17.556Z,3.53
2022-08-21T10:36:24.303Z,3.77
2022-08-21T10:37:30.064Z,2.97
2022-08-21T10:39:02.647Z,3.46
2022-08-21T10:39:58.691Z,3.47
2022-08-21T10:41:07.675Z,2.38
2022-08-21T10:42:28.272Z,2.97
2022-08-21T10:43:54.591Z,3.11
2022-08-21T10:45:03.240Z,2.79
2022-08-21T10:47:36.575Z,4.52
2022-08-21T10:48:42.348Z,3.16
2022-08-21T10:49:51.019Z,2.82
2022-08-21T10:51:09.322Z,3.23
2022-08-21T10:52:45.606Z,2.78
2022-08-21T10:53:51.448Z,3.23
2022-08-21T10:55:06.763Z,3.50
2022-08-21T10:56:22.933Z,4.09
2022-08-21T10:57:32.677Z,3.18
2022-08-21T10:58:38.666Z,2.88
2022-08-21T10:59:44.650Z,2.52
2022-08-21T11:00:50.495Z,2.99
2022-08-21T11:02:22.953Z,2.69
2022-08-21T11:03:39.158Z,3.27
2022-08-21T11:04:56.775Z,3.89
2022-08-21T11:06:02.620Z,3.80
2022-08-21T11:07:09.317Z,3.30
2022-08-21T11:08:16.757Z,2.48
2022-08-21T11:09:22.156Z,2.66
2022-08-21T11:11:47.082Z,3.05
2022-08-21T11:12:52.013Z,2.83
2022-08-21T11:14:00.650Z,3.21
2022-08-21T11:15:28.718Z,2.68
2022-08-21T11:16:38.522Z,3.76
2022-08-21T11:17:50.715Z,3.76
2022-08-21T11:18:59.545Z,3.98
2022-08-21T11:20:14.789Z,2.89
2022-08-21T11:23:02.998Z,3.04
2022-08-21T11:24:24.861Z,3.22
2022-08-21T11:26:54.719Z,3.17
2022-08-21T11:28:03.190Z,2.57
2022-08-21T11:29:09.122Z,2.86
2022-08-21T11:30:18.373Z,2.51
2022-08-21T11:31:37.632Z,2.95
2022-08-21T11:32:52.422Z,2.82
2022-08-21T11:34:24.606Z,3.35
2022-08-21T11:35:37.214Z,2.73
2022-08-21T11:36:50.119Z,3.42
2022-08-21T11:37:58.861Z,2.78
2022-08-21T11:39:04.821Z,3.19
2022-08-21T11:40:13.867Z,3.53
2022-08-21T11:41:32.351Z,2.59
2022-08-21T11:42:47.801Z,3.34
2022-08-21T11:43:56.553Z,3.06
2022-08-21T11:45:23.778Z,3.49
2022-08-21T11:46:47.139Z,2.94
2022-08-21T11:47:56.143Z,2.91
2022-08-21T11:49:20.222Z,3.94
2022-08-21T11:50:34.807Z,3.31
2022-08-21T11:51:35.167Z,3.49
2022-08-21T11:52:41.036Z,4.10
2022-08-21T11:53:49.818Z,3.58
2022-08-21T11:55:01.130Z,2.67
2022-08-21T11:56:22.624Z,3.54
2022-08-21T11:58:32.466Z,3.91
2022-08-21T11:59:47.324Z,3.02
2022-08-21T12:00:56.448Z,2.78
2022-08-21T12:01:59.788Z,2.87
2022-08-21T12:03:14.890Z,3.49
2022-08-21T12:04:35.685Z,4.07
2022-08-21T12:05:44.722Z,3.34
2022-08-21T12:06:47.389Z,3.62
2022-08-21T12:07:55.373Z,3.63
2022-08-21T12:09:05.407Z,3.11
2022-08-21T12:10:11.620Z,3.80
2022-08-21T12:11:20.579Z,2.98
2022-08-21T12:12:35.514Z,3.16
2022-08-21T12:13:42.708Z,3.05
2022-08-21T12:14:48.759Z,3.78
2022-08-21T12:15:51.106Z,4.02
2022-08-21T12:16:57.169Z,3.16
2022-08-21T12:18:26.158Z,2.97
2022-08-21T12:19:31.284Z,3.60
2022-08-21T12:20:50.230Z,3.04
2022-08-21T12:21:51.661Z,3.03
2022-08-21T12:22:57.742Z,2.81
2022-08-21T12:24:04.764Z,4.02
2022-08-21T12:25:10.927Z,4.16
2022-08-21T12:26:23.684Z,3.56
2022-08-21T12:30:30.193Z,3.07
2022-08-21T12:31:32.604Z,3.37
2022-08-21T12:32:46.795Z,2.95
2022-08-21T12:33:56.608Z,3.77
2022-08-21T12:35:08.409Z,2.80
2022-08-21T12:36:19.686Z,3.82
2022-08-21T12:37:25.533Z,3.12
2022-08-21T12:38:31.098Z,3.11
2022-08-21T12:39:36.435Z,3.56
2022-08-21T12:40:46.436Z,2.74
2022-08-21T12:41:52.585Z,3.03
2022-08-21T12:42:59.298Z,2.81
2022-08-21T12:44:11.428Z,4.18
2022-08-21T12:45:25.376Z,3.37
2022-08-21T12:46:39.097Z,3.27
2022-08-21T12:47:48.068Z,3.24
2022-08-21T12:48:57.015Z,4.74
2022-08-21T12:50:12.002Z,3.25
2022-08-21T12:51:20.612Z,3.00
2022-08-21T12:52:45.075Z,3.86
2022-08-21T12:53:53.626Z,2.72
2022-08-21T12:54:55.899Z,3.69
2022-08-21T12:56:00.182Z,2.85
2022-08-21T12:57:05.310Z,3.78
2022-08-21T12:58:09.452Z,2.74
2022-08-21T12:59:12.536Z,2.59
2022-08-21T13:00:18.851Z,3.52
2022-08-21T13:01:30.067Z,3.22
2022-08-21T13:02:35.587Z,3.95
2022-08-21T13:03:39.415Z,3.48
2022-08-21T13:04:42.160Z,3.14
2022-08-21T13:05:45.259Z,4.29
2022-08-21T13:06:51.452Z,3.19
2022-08-21T13:07:53.998Z,3.55
2022-08-21T13:10:19.078Z,3.30
2022-08-21T13:11:32.415Z,3.53
2022-08-21T13:12:32.432Z,3.21
2022-08-21T13:13:34.127Z,3.73
2022-08-21T13:14:46.043Z,4.69
2022-08-21T13:15:47.761Z,2.91
2022-08-21T13:18:06.351Z,2.99
2022-08-21T13:19:12.285Z,3.04
2022-08-21T13:20:24.685Z,3.04
2022-08-21T13:21:42.397Z,3.42
2022-08-21T13:22:45.184Z,3.49
2022-08-21T13:23:49.196Z,2.87
2022-08-21T13:24:52.029Z,3.47
2022-08-21T13:25:55.331Z,3.12
2022-08-21T13:26:58.047Z,2.94
2022-08-21T13:29:19.436Z,2.76
2022-08-21T13:30:24.536Z,2.66
2022-08-21T13:31:29.878Z,3.03
2022-08-21T13:32:35.177Z,3.17
2022-08-21T13:33:40.136Z,2.92
2022-08-21T13:34:42.536Z,3.24
2022-08-21T13:35:54.374Z,3.47
2022-08-21T13:36:59.487Z,4.29
2022-08-21T13:38:02.497Z,2.36
2022-08-21T13:39:07.328Z,3.30
2022-08-21T13:40:16.713Z,3.29
2022-08-21T13:41:22.816Z,3.23
2022-08-21T13:42:26.193Z,4.02
2022-08-21T13:43:34.741Z,3.10
2022-08-21T13:44:46.039Z,2.80
2022-08-21T13:45:51.831Z,2.79
2022-08-21T13:46:55.097Z,3.49
2022-08-21T13:47:59.776Z,3.69
2022-08-21T13:49:06.488Z,3.71
2022-08-21T13:50:12.973Z,3.11
2022-08-21T13:51:15.397Z,3.14
2022-08-21T13:52:24.154Z,3.61
2022-08-21T13:53:29.946Z,3.37
2022-08-21T13:54:38.477Z,2.61
2022-08-21T13:55:43.577Z,3.13
2022-08-21T13:56:47.880Z,3.43
2022-08-21T13:58:02.318Z,3.18
2022-08-21T13:59:04.791Z,2.97
2022-08-21T14:00:17.005Z,2.51
2022-08-21T14:01:22.999Z,3.83
2022-08-21T14:02:27.678Z,2.63
2022-08-21T14:03:39.609Z,2.79
2022-08-21T14:06:19.280Z,3.12
2022-08-21T14:07:27.966Z,3.02
2022-08-21T14:08:33.768Z,2.67
2022-08-21T14:09:43.003Z,2.60
2022-08-21T14:10:55.989Z,3.12
2022-08-21T14:11:56.978Z,3.92
2022-08-21T14:13:03.056Z,3.85
2022-08-21T14:14:08.888Z,3.68
2022-08-21T14:15:14.661Z,2.75
2022-08-21T14:16:23.853Z,4.95
2022-08-21T14:17:33.819Z,3.19
2022-08-21T14:18:45.406Z,2.46
2022-08-21T14:19:50.616Z,3.31
2022-08-21T14:21:08.548Z,2.79
2022-08-21T14:22:45.059Z,3.11
2022-08-21T14:23:50.925Z,2.66
2022-08-21T14:25:03.933Z,4.19
2022-08-21T14:26:10.004Z,3.47
2022-08-21T14:27:17.062Z,2.66
2022-08-21T14:28:28.016Z,3.21
2022-08-21T14:29:36.515Z,3.42
2022-08-21T14:30:43.558Z,2.73
2022-08-21T14:33:33.456Z,2.94
2022-08-21T14:34:36.203Z,3.08
2022-08-21T14:35:39.236Z,2.63
2022-08-21T14:36:51.083Z,2.39
2022-08-21T14:37:54.009Z,2.93
2022-08-21T14:38:55.985Z,2.53
2022-08-21T14:40:01.574Z,3.15
2022-08-21T14:41:10.760Z,3.06
2022-08-21T14:42:13.439Z,2.89
2022-08-21T14:43:18.428Z,2.62
2022-08-21T14:44:21.031Z,2.77
2022-08-21T14:45:27.866Z,2.38
2022-08-21T14:46:32.058Z,3.98
2022-08-21T14:47:34.488Z,3.00
2022-08-21T14:48:36.882Z,3.81
2022-08-21T14:49:39.289Z,3.08
2022-08-21T14:50:42.227Z,3.19
2022-08-21T14:51:53.742Z,3.26
2022-08-21T14:52:49.041Z,3.12
2022-08-21T14:53:55.896Z,3.16
2022-08-21T14:54:58.341Z,3.06
2022-08-21T14:56:00.751Z,3.23
2022-08-21T14:57:09.591Z,2.61
2022-08-21T14:58:14.497Z,3.53
2022-08-21T14:59:18.484Z,3.72
2022-08-21T15:00:27.085Z,3.28
2022-08-21T15:01:35.740Z,3.12
2022-08-21T15:02:38.565Z,3.24
2022-08-21T15:03:40.939Z,3.21
2022-08-21T15:04:43.325Z,3.19
2022-08-21T15:05:45.648Z,3.23
2022-08-21T15:06:48.184Z,2.61
2022-08-21T15:07:55.210Z,3.28